Time;durP1;ratioP1;P1;durP2;ratioP2;P2;SDS_P1;SDS_P2;PMS_P1;PMS_P2;Temp;Humidity;BMP_temperature;BMP_pressure;BME280_temperature;BME280_humidity;BME280_pressure;Samples;Min_cycle;Max_cycle;Signal;HPM_P1;HPM_P2
2021/05/29 00:01:10;;;;;;;1.90;0.85;;;;;;;29.91;20.49;98418.22;5094589;28;20032;-86
2021/05/29 00:03:36;;;;;;;1.65;1.00;;;;;;;30.08;20.25;98413.09;5094723;28;20031;-86
2021/05/29 00:06:03;;;;;;;1.70;1.00;;;;;;;30.27;19.86;98409.03;5094460;28;20032;-86
2021/05/29 00:08:29;;;;;;;1.52;1.20;;;;;;;30.39;20.17;98405.31;5094595;28;20059;-86
2021/05/29 00:10:58;;;;;;;2.08;1.20;;;;;;;30.20;20.47;98403.66;5094695;28;20059;-86
2021/05/29 00:13:26;;;;;;;1.35;1.13;;;;;;;30.19;20.59;98406.97;5094383;28;20040;-86
2021/05/29 00:15:53;;;;;;;4.03;2.00;;;;;;;29.97;20.90;98407.84;5094792;28;20024;-86
2021/05/29 00:18:19;;;;;;;3.50;1.35;;;;;;;29.66;21.67;98411.94;5093848;28;20568;-87
2021/05/29 00:20:46;;;;;;;1.73;1.25;;;;;;;29.69;21.36;98408.16;5094295;28;20194;-86
2021/05/29 00:23:12;;;;;;;2.22;1.23;;;;;;;29.75;21.49;98409.16;5094383;28;20032;-86
2021/05/29 00:25:39;;;;;;;1.92;1.13;;;;;;;29.86;21.05;98412.38;5090950;28;20557;-86
2021/05/29 00:28:05;;;;;;;3.13;2.03;;;;;;;29.42;21.64;98420.94;5074177;28;20490;-87
2021/05/29 00:30:32;;;;;;;2.45;1.48;;;;;;;29.13;22.17;98417.56;5076291;28;20831;-86
2021/05/29 00:32:58;;;;;;;3.88;1.67;;;;;;;28.97;22.64;98409.28;5091145;28;20372;-86
2021/05/29 00:35:24;;;;;;;2.92;1.60;;;;;;;29.11;22.49;98413.63;5093655;28;20038;-86
2021/05/29 00:37:51;;;;;;;1.67;1.40;;;;;;;29.28;22.40;98418.66;5093699;28;20078;-86
2021/05/29 00:40:17;;;;;;;2.10;1.55;;;;;;;29.51;21.61;98408.88;5094043;28;20495;-86
2021/05/29 00:42:43;;;;;;;1.63;1.15;;;;;;;29.62;21.65;98400.75;5093976;28;20032;-86
2021/05/29 00:45:10;;;;;;;2.35;1.30;;;;;;;29.75;21.65;98407.13;5093934;28;20028;-86
2021/05/29 00:47:36;;;;;;;2.25;1.35;;;;;;;29.86;21.46;98403.88;5093702;28;20377;-86
2021/05/29 00:50:08;;;;;;;1.27;1.17;;;;;;;30.12;20.75;98407.28;5093490;28;20060;-85
2021/05/29 00:52:35;;;;;;;1.88;1.25;;;;;;;30.44;20.67;98395.41;5093527;28;20128;-86
2021/05/29 00:55:05;;;;;;;3.65;1.30;;;;;;;30.54;20.79;98400.63;5093853;28;20031;-85
2021/05/29 00:57:31;;;;;;;2.35;1.20;;;;;;;30.45;20.68;98402.66;5093733;28;20104;-85
2021/05/29 00:59:57;;;;;;;1.27;1.10;;;;;;;30.46;20.87;98401.38;5094018;28;20037;-86
2021/05/29 01:02:24;;;;;;;2.95;1.05;;;;;;;30.52;20.67;98405.97;5094531;28;20029;-85
2021/05/29 01:04:50;;;;;;;2.05;1.23;;;;;;;30.49;21.19;98395.59;5093514;28;20499;-86
2021/05/29 01:07:17;;;;;;;2.53;1.17;;;;;;;30.09;21.54;98400.50;5093594;28;20428;-86
2021/05/29 01:09:44;;;;;;;2.25;1.05;;;;;;;29.64;22.05;98403.91;5093412;28;20377;-86
2021/05/29 01:12:17;;;;;;;1.52;1.38;;;;;;;29.68;21.55;98400.94;5093744;28;20028;-86
2021/05/29 01:14:49;;;;;;;1.35;1.00;;;;;;;30.07;21.19;98405.84;5093860;28;20028;-86
2021/05/29 01:17:15;;;;;;;1.92;1.27;;;;;;;30.26;20.86;98398.97;5093656;28;20040;-86
2021/05/29 01:19:42;;;;;;;1.65;1.42;;;;;;;30.48;20.97;98401.72;5092954;28;20040;-86
2021/05/29 01:22:08;;;;;;;1.95;1.20;;;;;;;30.50;20.96;98393.53;5093667;28;20396;-86
2021/05/29 01:24:36;;;;;;;1.10;1.00;;;;;;;30.31;21.73;98394.72;5088856;28;20032;-86
2021/05/29 01:27:04;;;;;;;1.40;1.13;;;;;;;30.03;21.55;98400.34;5089010;28;20038;-86
2021/05/29 01:29:31;;;;;;;2.05;1.58;;;;;;;30.03;21.50;98399.53;5073658;28;20039;-86
2021/05/29 01:32:07;;;;;;;2.28;1.20;;;;;;;30.16;21.22;98383.22;5091404;28;20035;-86
2021/05/29 01:34:36;;;;;;;1.80;1.20;;;;;;;30.24;21.47;98383.69;5091910;28;20032;-86
2021/05/29 01:37:05;;;;;;;1.42;1.08;;;;;;;30.29;21.29;98385.91;5093140;28;20110;-85
2021/05/29 01:39:32;;;;;;;1.83;1.17;;;;;;;30.41;20.68;98385.78;5093482;28;20030;-86
2021/05/29 01:41:59;;;;;;;1.00;0.90;;;;;;;30.37;21.32;98388.00;5093270;28;20032;-86
2021/05/29 01:44:25;;;;;;;2.08;1.45;;;;;;;30.15;21.42;98386.50;5093089;28;20550;-86
2021/05/29 01:46:52;;;;;;;2.60;1.15;;;;;;;30.16;21.07;98386.03;5092838;28;20062;-86
2021/05/29 01:49:19;;;;;;;1.85;1.10;;;;;;;30.26;21.02;98381.19;5096117;28;20071;-86
2021/05/29 01:51:45;;;;;;;1.70;1.00;;;;;;;30.40;21.12;98387.06;5097258;28;20032;-86
2021/05/29 01:54:15;;;;;;;3.60;1.45;;;;;;;30.25;21.42;98390.94;5097449;28;20468;-86
2021/05/29 01:56:42;;;;;;;1.38;1.02;;;;;;;30.24;21.21;98384.50;5097202;28;20036;-86
2021/05/29 01:59:08;;;;;;;1.30;1.13;;;;;;;30.39;20.91;98387.53;5097108;28;20035;-86
2021/05/29 02:01:35;;;;;;;2.58;1.45;;;;;;;30.49;20.74;98383.44;5096735;28;20044;-85
2021/05/29 02:04:01;;;;;;;2.50;1.40;;;;;;;30.49;20.96;98389.91;5097350;28;20036;-86
2021/05/29 02:06:27;;;;;;;2.42;1.23;;;;;;;30.45;21.00;98380.78;5097270;28;20024;-86
2021/05/29 02:08:53;;;;;;;2.65;1.35;;;;;;;30.52;20.75;98376.84;5097007;28;20372;-86
2021/05/29 02:11:20;;;;;;;1.58;1.20;;;;;;;30.62;20.71;98384.09;5097171;28;20020;-85
2021/05/29 02:13:46;;;;;;;2.08;1.45;;;;;;;30.74;20.65;98385.97;5096846;28;20055;-85
2021/05/29 02:16:13;;;;;;;1.98;1.35;;;;;;;30.76;20.55;98381.41;5097161;28;20399;-85
2021/05/29 02:18:40;;;;;;;2.42;1.65;;;;;;;30.77;20.72;98380.16;5085384;28;20105;-86
2021/05/29 02:21:15;;;;;;;2.85;1.20;;;;;;;30.80;20.15;98375.59;5090773;28;20036;-85
2021/05/29 02:23:47;;;;;;;2.25;1.25;;;;;;;30.90;20.41;98373.56;5096880;28;20437;-85
2021/05/29 02:26:17;;;;;;;2.72;1.23;;;;;;;30.99;20.61;98368.69;5096566;28;20020;-85
2021/05/29 02:28:54;;;;;;;2.47;1.65;;;;;;;30.99;20.55;98373.56;5096549;28;20407;-85
2021/05/29 02:31:21;;;;;;;2.15;1.33;;;;;;;30.99;20.46;98377.19;5096594;28;20502;-85
2021/05/29 02:33:48;;;;;;;3.45;1.67;;;;;;;30.99;20.32;98374.38;5096386;28;20032;-85
2021/05/29 02:36:14;;;;;;;3.30;2.00;;;;;;;31.02;20.48;98364.88;5096242;28;20024;-84
2021/05/29 02:38:40;;;;;;;2.72;1.55;;;;;;;31.00;20.38;98367.41;5095087;28;20471;-85
2021/05/29 02:41:10;;;;;;;2.50;1.83;;;;;;;30.99;20.51;98362.22;5096409;28;20051;-85
2021/05/29 02:43:38;;;;;;;3.13;1.40;;;;;;;31.00;20.32;98360.94;5096288;28;20476;-86
2021/05/29 02:46:05;;;;;;;3.58;2.00;;;;;;;31.00;20.55;98370.25;5095986;28;20028;-86
2021/05/29 02:48:31;;;;;;;3.20;1.65;;;;;;;31.00;20.48;98361.75;5096672;28;20028;-86
2021/05/29 02:50:57;;;;;;;3.53;2.08;;;;;;;31.03;20.42;98360.00;5096193;28;20040;-85
2021/05/29 02:53:23;;;;;;;3.20;2.00;;;;;;;30.93;20.63;98364.91;5094552;28;20070;-86
2021/05/29 02:55:49;;;;;;;2.55;1.85;;;;;;;30.80;20.52;98358.59;5096062;28;20028;-86
2021/05/29 02:58:16;;;;;;;3.58;1.90;;;;;;;30.59;20.80;98368.84;5095951;28;20521;-85
2021/05/29 03:00:45;;;;;;;3.15;1.88;;;;;;;30.58;20.92;98370.06;5094895;28;20472;-85
2021/05/29 03:03:11;;;;;;;5.07;1.98;;;;;;;30.70;20.68;98369.13;5094605;28;20487;-86
2021/05/29 03:05:41;;;;;;;2.97;1.80;;;;;;;30.78;20.88;98372.44;5095818;28;20502;-86
2021/05/29 03:08:08;;;;;;;2.50;1.58;;;;;;;30.61;20.92;98368.34;5095669;28;20028;-86
2021/05/29 03:10:35;;;;;;;3.15;2.25;;;;;;;30.42;21.53;98366.75;5075460;28;20079;-86
2021/05/29 03:13:01;;;;;;;2.55;2.15;;;;;;;30.36;21.41;98368.66;5075517;28;20032;-86
2021/05/29 03:15:28;;;;;;;3.30;2.30;;;;;;;30.22;21.84;98360.72;5075148;28;20024;-86
2021/05/29 03:17:55;;;;;;;2.85;2.22;;;;;;;30.13;21.73;98363.53;5075339;28;20106;-86
2021/05/29 03:20:24;;;;;;;3.95;2.72;;;;;;;30.08;22.02;98362.13;5083607;28;20495;-85
2021/05/29 03:22:50;;;;;;;5.15;2.67;;;;;;;30.11;22.03;98358.31;5092736;28;20047;-85
2021/05/29 03:25:17;;;;;;;5.05;2.75;;;;;;;29.97;22.14;98359.72;5095182;28;20024;-85
2021/05/29 03:27:47;;;;;;;3.42;2.38;;;;;;;29.87;22.08;98360.16;5095703;28;20028;-85
2021/05/29 03:30:16;;;;;;;3.45;2.22;;;;;;;29.93;22.35;98361.91;5095202;28;20051;-85
2021/05/29 03:32:42;;;;;;;4.70;2.75;;;;;;;29.62;22.68;98357.50;5095216;28;20495;-85
2021/05/29 03:35:10;;;;;;;3.75;2.40;;;;;;;29.53;22.80;98357.47;5095321;28;20111;-86
2021/05/29 03:37:36;;;;;;;4.40;2.72;;;;;;;29.56;22.51;98365.03;5095215;28;20511;-86
2021/05/29 03:40:05;;;;;;;5.03;2.42;;;;;;;29.35;23.04;98370.28;5090246;28;20035;-86
2021/05/29 03:42:31;;;;;;;6.78;2.90;;;;;;;28.49;24.25;98370.22;5083957;28;20039;-86
2021/05/29 03:44:57;;;;;;;4.57;3.22;;;;;;;27.28;25.85;98378.19;5095008;28;20036;-85
2021/05/29 03:47:23;;;;;;;5.05;3.55;;;;;;;27.32;26.23;98374.03;5093873;28;20040;-84
2021/05/29 03:49:49;;;;;;;2.70;1.98;;;;;;;26.63;26.29;98375.59;5093616;28;20169;-84
2021/05/29 03:52:15;;;;;;;4.53;3.08;;;;;;;26.63;26.92;98369.16;5094922;28;20020;-84
2021/05/29 03:54:41;;;;;;;4.60;3.20;;;;;;;26.53;26.93;98375.91;5094795;28;20038;-84
2021/05/29 03:57:07;;;;;;;5.90;3.42;;;;;;;26.96;27.58;98372.69;5094481;28;20095;-84
2021/05/29 03:59:34;;;;;;;5.95;3.00;;;;;;;26.99;27.22;98375.41;5094918;28;20038;-84
2021/05/29 04:02:00;;;;;;;5.70;3.58;;;;;;;27.23;27.17;98375.91;5095042;28;20250;-84
2021/05/29 04:04:26;;;;;;;5.57;3.40;;;;;;;27.54;26.07;98379.81;5094720;28;20047;-85
2021/05/29 04:06:52;;;;;;;4.35;2.85;;;;;;;27.70;26.20;98378.94;5094719;28;20039;-85
2021/05/29 04:09:18;;;;;;;4.18;2.85;;;;;;;27.81;25.96;98376.53;5094699;28;20031;-85
2021/05/29 04:11:44;;;;;;;5.57;2.67;;;;;;;26.79;26.73;98386.06;5094071;28;20042;-85
2021/05/29 04:14:10;;;;;;;5.90;4.30;;;;;;;25.01;29.70;98387.94;5094398;28;20503;-85
2021/05/29 04:16:36;;;;;;;4.28;3.67;;;;;;;25.67;28.64;98384.09;5094112;28;20034;-85
2021/05/29 04:19:02;;;;;;;6.88;3.17;;;;;;;24.11;30.12;98380.03;5094277;28;20040;-85
2021/05/29 04:21:28;;;;;;;3.25;2.30;;;;;;;23.72;31.63;98387.03;5094128;28;20082;-84
2021/05/29 04:23:55;;;;;;;4.97;3.53;;;;;;;23.81;32.14;98383.69;5094272;28;20043;-85
2021/05/29 04:26:21;;;;;;;4.03;3.17;;;;;;;23.81;31.44;98378.88;5094863;28;20024;-84
2021/05/29 04:28:48;;;;;;;5.32;3.67;;;;;;;23.76;32.34;98375.75;5094241;28;20111;-85
2021/05/29 04:31:14;;;;;;;3.45;2.90;;;;;;;23.34;31.83;98385.56;5094195;28;20568;-85
2021/05/29 04:33:40;;;;;;;4.72;3.13;;;;;;;24.40;30.96;98386.69;5094004;28;20044;-84
2021/05/29 04:36:07;;;;;;;5.13;3.97;;;;;;;23.26;31.84;98390.47;5094068;28;20032;-85
2021/05/29 04:38:33;;;;;;;4.10;3.40;;;;;;;23.65;32.73;98387.13;5094298;28;20032;-85
2021/05/29 04:40:59;;;;;;;3.40;2.72;;;;;;;23.46;32.02;98384.22;5093785;28;20507;-84
2021/05/29 04:43:25;;;;;;;3.88;2.80;;;;;;;24.17;31.56;98397.94;5094243;28;20028;-84
2021/05/29 04:45:51;;;;;;;4.53;2.90;;;;;;;24.27;31.27;98400.53;5093857;28;20476;-85
2021/05/29 04:48:17;;;;;;;4.85;3.58;;;;;;;23.45;32.92;98403.06;5094223;28;20434;-84
2021/05/29 04:53:29;;;;;;;3.05;2.47;;;;;;;23.51;31.54;98403.38;5094315;28;20518;-84
2021/05/29 04:55:57;;;;;;;3.15;2.75;;;;;;;24.20;30.86;98397.09;5087483;28;20399;-85
2021/05/29 04:58:23;;;;;;;3.30;2.05;;;;;;;24.43;30.07;98397.09;5073503;28;20568;-85
2021/05/29 05:00:50;;;;;;;2.90;2.30;;;;;;;22.58;33.11;98408.47;5072140;28;20400;-86
2021/05/29 05:03:16;;;;;;;3.35;1.90;;;;;;;22.76;32.79;98411.91;5073495;28;20024;-85
2021/05/29 05:05:42;;;;;;;3.90;2.35;;;;;;;22.13;33.59;98406.91;5073440;28;20112;-86
2021/05/29 05:08:09;;;;;;;2.90;2.53;;;;;;;20.55;36.41;98414.94;5082672;28;20492;-85
2021/05/29 05:10:35;;;;;;;2.28;1.83;;;;;;;22.35;33.75;98419.50;5093472;28;20028;-85
2021/05/29 05:13:01;;;;;;;2.38;1.70;;;;;;;22.02;33.48;98416.22;5093432;28;20043;-84
2021/05/29 05:15:27;;;;;;;2.00;1.77;;;;;;;23.17;32.70;98420.22;5093560;28;20107;-85
2021/05/29 05:17:54;;;;;;;1.20;1.10;;;;;;;22.84;32.09;98423.81;5093506;28;20044;-84
2021/05/29 05:20:20;;;;;;;1.67;1.20;;;;;;;23.97;30.04;98417.47;5093432;28;20043;-85
2021/05/29 05:22:47;;;;;;;1.23;1.10;;;;;;;23.25;30.88;98425.31;5088242;28;20124;-85
2021/05/29 05:25:14;;;;;;;1.23;1.00;;;;;;;23.08;31.10;98428.34;5082905;28;20032;-85
2021/05/29 05:27:41;;;;;;;2.83;0.82;;;;;;;24.12;30.62;98423.66;5093456;28;20028;-85
2021/05/29 05:30:09;;;;;;;0.90;0.90;;;;;;;24.12;29.62;98423.66;5093679;28;20032;-84
2021/05/29 05:32:36;;;;;;;0.70;0.70;;;;;;;25.18;28.70;98420.47;5079940;28;20468;-85
2021/05/29 05:35:07;;;;;;;1.13;0.70;;;;;;;25.71;27.44;98419.34;5073176;28;20460;-85
2021/05/29 05:37:33;;;;;;;0.60;0.60;;;;;;;24.77;28.48;98425.72;5073125;28;20465;-85
2021/05/29 05:39:59;;;;;;;0.70;0.52;;;;;;;25.26;28.65;98435.97;5072947;28;20033;-85
2021/05/29 05:42:26;;;;;;;0.50;0.50;;;;;;;25.98;27.01;98425.53;5084668;28;20089;-85
2021/05/29 05:44:52;;;;;;;0.40;0.40;;;;;;;26.22;26.90;98431.00;5093538;28;20032;-85
2021/05/29 05:47:18;;;;;;;0.60;0.50;;;;;;;26.95;25.70;98425.47;5091864;28;20047;-84
2021/05/29 05:49:44;;;;;;;0.70;0.60;;;;;;;27.18;25.20;98427.22;5093123;28;20032;-85
2021/05/29 05:52:10;;;;;;;0.60;0.60;;;;;;;26.84;26.44;98436.22;5093085;28;20028;-84
2021/05/29 05:54:36;;;;;;;0.50;0.50;;;;;;;26.87;26.21;98429.69;5089982;28;20036;-84
2021/05/29 05:57:03;;;;;;;0.70;0.57;;;;;;;27.47;25.75;98427.97;5078610;28;20028;-85
2021/05/29 05:59:29;;;;;;;0.52;0.50;;;;;;;28.23;25.19;98431.63;5085354;28;20111;-85
2021/05/29 06:01:55;;;;;;;0.50;0.40;;;;;;;28.71;24.09;98425.56;5092938;28;20040;-85
2021/05/29 06:04:21;;;;;;;0.50;0.50;;;;;;;28.84;23.66;98438.84;5093481;28;20445;-85
2021/05/29 06:06:47;;;;;;;0.50;0.50;;;;;;;28.90;23.82;98440.63;5093098;28;20504;-85
2021/05/29 06:09:14;;;;;;;0.40;0.40;;;;;;;28.53;23.80;98439.50;5092823;28;20028;-85
2021/05/29 06:11:40;;;;;;;0.50;0.47;;;;;;;28.03;23.60;98445.19;5093021;28;20481;-84
2021/05/29 06:19:21;;;;;;;0.40;0.40;;;;;;;28.89;23.62;98441.91;5092829;28;20434;-85
2021/05/29 06:21:50;;;;;;;0.47;0.47;;;;;;;28.78;23.35;98446.34;5091495;28;20016;-85
2021/05/29 06:24:22;;;;;;;0.73;0.57;;;;;;;29.05;23.45;98450.19;5092649;28;20032;-85
2021/05/29 06:26:49;;;;;;;1.40;0.73;;;;;;;29.50;22.64;98452.56;5093218;28;20020;-85
2021/05/29 06:29:17;;;;;;;0.80;0.50;;;;;;;29.24;22.68;98451.91;5093404;28;20114;-85
2021/05/29 06:31:43;;;;;;;1.05;0.85;;;;;;;29.24;22.79;98451.91;5092648;28;20030;-84
2021/05/29 06:34:09;;;;;;;0.63;0.50;;;;;;;28.94;23.51;98451.81;5092633;28;20077;-85
2021/05/29 06:36:35;;;;;;;2.03;0.70;;;;;;;28.36;24.29;98466.28;5095891;28;20036;-85
2021/05/29 06:39:03;;;;;;;0.63;0.57;;;;;;;28.46;23.94;98459.50;5096683;28;20030;-85
2021/05/29 06:41:29;;;;;;;1.05;0.60;;;;;;;28.85;23.41;98457.38;5096620;28;20067;-85
2021/05/29 06:43:55;;;;;;;0.52;0.52;;;;;;;28.87;23.63;98458.50;5096321;28;20039;-85
2021/05/29 06:46:21;;;;;;;0.43;0.40;;;;;;;29.13;23.10;98462.81;5096464;28;20038;-85
2021/05/29 06:48:47;;;;;;;0.80;0.50;;;;;;;29.35;22.98;98463.66;5096119;28;20035;-85
2021/05/29 06:51:32;;;;;;;0.52;0.52;;;;;;;29.47;23.25;98467.66;5095723;28;20039;-85
2021/05/29 06:54:03;;;;;;;0.68;0.60;;;;;;;29.58;23.10;98461.56;5096187;28;20028;-85
2021/05/29 06:59:13;;;;;;;1.42;0.75;;;;;;;30.25;22.50;98464.59;5096293;28;20451;-85
2021/05/29 07:01:39;;;;;;;0.63;0.60;;;;;;;30.34;22.57;98464.66;5079755;28;20465;-86
2021/05/29 07:04:05;;;;;;;0.57;0.57;;;;;;;30.41;22.25;98464.38;5075750;28;20473;-85
2021/05/29 07:06:31;;;;;;;1.25;0.57;;;;;;;30.45;22.46;98468.63;5079585;28;20475;-85
2021/05/29 07:08:58;;;;;;;0.80;0.80;;;;;;;30.27;22.71;98470.59;5096036;28;20089;-85
2021/05/29 07:11:24;;;;;;;0.52;0.52;;;;;;;30.36;22.78;98465.78;5095757;28;20024;-85
2021/05/29 07:13:50;;;;;;;1.05;0.70;;;;;;;30.07;23.21;98471.78;5095641;28;20036;-85
2021/05/29 07:16:16;;;;;;;1.75;1.30;;;;;;;29.56;23.68;98467.72;5095934;28;20051;-85
2021/05/29 07:18:45;;;;;;;1.90;0.90;;;;;;;29.41;23.61;98470.28;5095301;28;20056;-85
2021/05/29 07:21:15;;;;;;;0.85;0.85;;;;;;;28.96;24.36;98463.47;5095524;28;20043;-85
2021/05/29 07:23:45;;;;;;;1.20;1.08;;;;;;;28.77;24.34;98467.38;5093968;28;20031;-86
2021/05/29 07:26:12;;;;;;;1.23;0.95;;;;;;;28.79;24.02;98464.88;5095435;28;20024;-86
2021/05/29 07:28:39;;;;;;;1.10;1.00;;;;;;;28.89;24.17;98463.72;5095705;28;20028;-86
2021/05/29 07:31:06;;;;;;;1.95;1.13;;;;;;;28.73;23.67;98465.44;5095331;28;20116;-86
2021/05/29 07:33:32;;;;;;;3.10;1.50;;;;;;;28.89;23.83;98466.53;5095418;28;20032;-86
2021/05/29 07:35:59;;;;;;;1.40;1.15;;;;;;;28.65;23.71;98466.97;5095138;28;20028;-85
2021/05/29 07:38:25;;;;;;;1.13;1.00;;;;;;;28.27;24.29;98476.69;5095465;28;20365;-85
2021/05/29 07:40:52;;;;;;;1.00;0.70;;;;;;;28.39;24.90;98481.53;5095067;28;20102;-86
2021/05/29 07:43:19;;;;;;;3.55;1.13;;;;;;;28.41;24.05;98479.84;5095271;28;20030;-86
2021/05/29 07:45:46;;;;;;;1.15;0.77;;;;;;;28.54;24.11;98477.00;5094897;28;20060;-86
2021/05/29 07:48:12;;;;;;;1.23;0.80;;;;;;;28.52;24.30;98485.16;5094892;28;20107;-86
2021/05/29 07:50:57;;;;;;;2.15;0.90;;;;;;;29.12;23.77;98480.25;5094896;28;20071;-86
2021/05/29 07:53:25;;;;;;;1.30;0.90;;;;;;;29.71;23.08;98479.28;5095060;28;20032;-86
2021/05/29 07:55:51;;;;;;;1.05;0.80;;;;;;;30.09;22.99;98485.47;5094868;28;20036;-86
2021/05/29 07:58:17;;;;;;;1.08;0.80;;;;;;;29.66;22.77;98483.50;5093464;28;20028;-86
2021/05/29 08:00:49;;;;;;;1.10;1.00;;;;;;;29.51;23.10;98479.63;5075075;28;20403;-86
2021/05/29 08:03:15;;;;;;;0.98;0.90;;;;;;;29.62;23.29;98480.00;5074610;28;20111;-86
2021/05/29 08:05:41;;;;;;;1.33;1.10;;;;;;;29.62;23.47;98482.81;5074258;28;20057;-86
2021/05/29 08:08:08;;;;;;;1.50;1.40;;;;;;;29.11;23.62;98481.47;5073164;28;20033;-85
2021/05/29 08:10:34;;;;;;;2.75;1.10;;;;;;;28.35;24.70;98484.50;5083981;28;20379;-85
2021/05/29 08:13:00;;;;;;;0.80;0.80;;;;;;;28.58;24.85;98480.50;5093391;28;20227;-86
2021/05/29 08:15:26;;;;;;;1.52;1.08;;;;;;;28.57;24.28;98484.56;5093259;28;20078;-85
2021/05/29 08:17:52;;;;;;;2.15;0.98;;;;;;;28.17;24.72;98487.09;5094326;28;20081;-85
2021/05/29 08:20:18;;;;;;;1.10;1.00;;;;;;;28.08;25.15;98490.59;5094230;28;20056;-85
2021/05/29 08:22:44;;;;;;;1.02;0.80;;;;;;;28.84;24.89;98479.22;5094500;28;20484;-85
2021/05/29 08:25:11;;;;;;;1.58;1.13;;;;;;;28.96;24.44;98488.91;5094159;28;20560;-85
2021/05/29 08:27:37;;;;;;;1.25;1.15;;;;;;;28.54;24.83;98494.72;5094189;28;20024;-85
2021/05/29 08:30:05;;;;;;;1.25;0.82;;;;;;;28.96;25.12;98489.69;5094311;28;20024;-85
2021/05/29 08:32:31;;;;;;;1.88;0.80;;;;;;;29.50;25.03;98492.16;5093766;28;20400;-85
2021/05/29 08:34:57;;;;;;;6.13;1.80;;;;;;;29.91;23.38;98485.38;5094049;28;20077;-86
2021/05/29 08:37:23;;;;;;;1.30;1.20;;;;;;;30.40;23.25;98483.41;5094143;28;20064;-86
2021/05/29 08:39:49;;;;;;;1.48;1.10;;;;;;;30.04;23.21;98488.91;5094126;28;20480;-86
2021/05/29 08:42:16;;;;;;;0.98;0.90;;;;;;;30.36;23.54;98490.47;5094080;28;20104;-87
2021/05/29 08:44:42;;;;;;;1.27;1.17;;;;;;;30.34;22.43;98490.16;5094092;28;20036;-86
2021/05/29 08:47:08;;;;;;;0.95;0.90;;;;;;;30.26;23.05;98483.16;5093724;28;20040;-86
2021/05/29 08:49:35;;;;;;;2.53;1.67;;;;;;;29.88;23.83;98480.63;5093761;28;20032;-86
2021/05/29 08:52:03;;;;;;;1.20;1.10;;;;;;;30.40;23.39;98485.44;5092625;28;20020;-87
2021/05/29 08:54:30;;;;;;;0.80;0.80;;;;;;;31.04;22.89;98469.38;5093787;28;20028;-86
2021/05/29 08:56:56;;;;;;;1.60;1.50;;;;;;;31.15;22.98;98478.19;5093855;28;20027;-86
2021/05/29 08:59:22;;;;;;;2.17;1.65;;;;;;;31.00;22.75;98472.34;5073444;28;20058;-86
2021/05/29 09:01:48;;;;;;;2.13;1.33;;;;;;;31.08;21.76;98472.84;5073279;28;20315;-86
2021/05/29 09:04:15;;;;;;;1.50;1.15;;;;;;;31.25;21.47;98462.75;5073797;28;20028;-86
2021/05/29 09:06:44;;;;;;;1.05;0.95;;;;;;;31.42;21.49;98461.97;5086611;28;20039;-86
2021/05/29 09:09:15;;;;;;;1.48;1.05;;;;;;;31.71;21.69;98472.78;5093190;28;20070;-86
2021/05/29 09:11:57;;;;;;;1.00;0.90;;;;;;;31.33;21.93;98461.16;5093638;28;20040;-86
2021/05/29 09:14:44;;;;;;;1.05;0.77;;;;;;;31.04;22.64;98470.13;5093436;28;20043;-86
2021/05/29 09:17:17;;;;;;;1.55;0.93;;;;;;;31.02;22.23;98469.03;5093350;28;20036;-86
2021/05/29 09:20:09;;;;;;;1.58;1.15;;;;;;;30.74;23.35;98471.03;5093401;28;20055;-86
2021/05/29 09:22:56;;;;;;;0.70;0.70;;;;;;;30.80;22.51;98465.53;5093568;28;20024;-86
2021/05/29 09:25:24;;;;;;;1.33;0.80;;;;;;;31.21;22.49;98462.09;5093616;28;20025;-86
2021/05/29 09:27:57;;;;;;;1.38;0.93;;;;;;;31.63;21.24;98457.34;5093717;28;20039;-86
2021/05/29 09:30:44;;;;;;;0.70;0.65;;;;;;;31.78;21.16;98468.81;5093594;28;20113;-87
2021/05/29 09:33:20;;;;;;;1.48;0.98;;;;;;;31.48;22.42;98464.97;5093932;28;20028;-86
2021/05/29 09:35:59;;;;;;;0.80;0.80;;;;;;;31.56;21.87;98468.22;5092196;28;20511;-86
2021/05/29 09:38:33;;;;;;;0.60;0.60;;;;;;;31.68;21.49;98470.91;5093372;28;20017;-86
2021/05/29 09:41:00;;;;;;;0.80;0.80;;;;;;;31.53;21.61;98467.13;5093188;28;20403;-86
2021/05/29 09:43:26;;;;;;;1.15;0.98;;;;;;;31.06;22.49;98467.66;5093589;28;20055;-86
2021/05/29 09:46:05;;;;;;;0.93;0.82;;;;;;;31.16;22.17;98471.25;5093023;28;20032;-86
2021/05/29 09:48:34;;;;;;;1.00;0.70;;;;;;;30.90;21.72;98467.94;5093205;28;20042;-86
2021/05/29 09:51:10;;;;;;;1.20;0.85;;;;;;;30.99;21.68;98461.50;5093278;28;20028;-86
2021/05/29 09:53:42;;;;;;;0.93;0.77;;;;;;;31.12;22.06;98462.91;5092947;28;20025;-86
2021/05/29 09:56:21;;;;;;;1.02;0.90;;;;;;;30.86;22.32;98461.59;5090658;28;20055;-86
2021/05/29 09:58:52;;;;;;;0.73;0.73;;;;;;;31.11;22.04;98461.31;5093132;28;20471;-86
2021/05/29 10:01:38;;;;;;;1.75;1.10;;;;;;;30.99;22.17;98459.44;5092949;28;20029;-86
2021/05/29 10:04:06;;;;;;;1.58;1.00;;;;;;;31.11;22.13;98455.63;5093373;28;20032;-86
2021/05/29 10:06:32;;;;;;;0.60;0.60;;;;;;;30.56;22.77;98456.84;5093130;28;20062;-86
2021/05/29 10:08:58;;;;;;;1.13;0.90;;;;;;;30.89;22.63;98455.03;5093705;28;20475;-86
2021/05/29 10:11:24;;;;;;;0.82;0.80;;;;;;;30.86;22.26;98449.47;5097212;28;20069;-86
2021/05/29 10:13:50;;;;;;;2.28;0.60;;;;;;;31.00;22.83;98448.88;5096681;28;20141;-86
2021/05/29 10:16:17;;;;;;;0.73;0.73;;;;;;;31.38;21.78;98446.31;5096676;28;20568;-86
2021/05/29 10:18:49;;;;;;;1.42;1.02;;;;;;;30.77;22.67;98445.38;5096589;28;20127;-86
2021/05/29 10:21:18;;;;;;;0.93;0.77;;;;;;;30.63;22.32;98443.16;5096767;28;20028;-86
2021/05/29 10:23:47;;;;;;;1.30;1.08;;;;;;;31.04;22.82;98441.00;5096659;28;20043;-86
2021/05/29 10:26:17;;;;;;;0.85;0.73;;;;;;;31.72;21.35;98443.13;5094227;28;20040;-86
2021/05/29 10:28:46;;;;;;;1.10;0.82;;;;;;;31.75;21.82;98442.16;5096657;28;20028;-86
2021/05/29 10:31:13;;;;;;;0.70;0.50;;;;;;;31.35;21.74;98439.56;5096790;28;20040;-86
2021/05/29 10:33:43;;;;;;;0.60;0.60;;;;;;;31.39;21.84;98447.91;5096498;28;20047;-86
2021/05/29 10:36:39;;;;;;;0.82;0.60;;;;;;;31.72;21.51;98434.59;5096771;28;20068;-86
2021/05/29 10:39:08;;;;;;;0.75;0.63;;;;;;;32.41;21.15;98436.53;5096804;28;20028;-86
2021/05/29 10:41:51;;;;;;;0.80;0.80;;;;;;;32.07;19.80;98434.97;5096683;28;20028;-86
2021/05/29 10:44:37;;;;;;;0.73;0.60;;;;;;;32.26;21.09;98427.91;5094812;28;20035;-86
2021/05/29 10:47:12;;;;;;;0.82;0.73;;;;;;;32.26;20.29;98432.81;5096380;28;20032;-86
2021/05/29 10:49:59;;;;;;;0.65;0.63;;;;;;;31.58;20.32;98423.91;5076093;28;20062;-86
2021/05/29 10:52:32;;;;;;;1.58;0.68;;;;;;;31.29;22.73;98421.59;5075969;28;20025;-86
2021/05/29 10:55:13;;;;;;;0.75;0.63;;;;;;;32.31;21.12;98420.78;5082537;28;20032;-86
2021/05/29 10:57:52;;;;;;;1.33;0.80;;;;;;;32.77;19.86;98415.63;5075864;28;20036;-87
2021/05/29 11:00:37;;;;;;;1.15;0.73;;;;;;;31.74;19.56;98423.53;5076130;28;20029;-87
2021/05/29 11:03:25;;;;;;;0.70;0.70;;;;;;;31.07;19.91;98414.50;5075683;28;20093;-87
2021/05/29 11:05:57;;;;;;;0.95;0.90;;;;;;;30.84;20.25;98415.91;5093077;28;20103;-87
2021/05/29 11:08:57;;;;;;;0.60;0.60;;;;;;;30.90;21.35;98414.03;5096952;28;20021;-87
2021/05/29 11:11:48;;;;;;;1.13;1.02;;;;;;;31.67;20.33;98420.28;5095795;28;20064;-86
2021/05/29 11:14:18;;;;;;;1.25;0.68;;;;;;;30.70;20.11;98414.50;5095469;28;20078;-88
2021/05/29 11:16:50;;;;;;;0.33;0.33;;;;;;;28.68;22.37;98426.47;5096003;28;20060;-87
2021/05/29 11:19:18;;;;;;;0.45;0.40;;;;;;;28.34;22.71;98434.88;5095649;28;20043;-88
2021/05/29 11:22:13;;;;;;;0.50;0.50;;;;;;;28.09;22.34;98434.94;5095029;28;20031;-88
2021/05/29 11:24:49;;;;;;;0.70;0.45;;;;;;;26.98;23.16;98443.50;5095673;28;20039;-87
2021/05/29 11:27:18;;;;;;;0.30;0.30;;;;;;;26.14;25.02;98450.09;5075013;28;20025;-87
2021/05/29 11:29:48;;;;;;;1.05;0.57;;;;;;;25.75;24.94;98436.94;5074516;28;20036;-87
2021/05/29 11:32:14;;;;;;;0.47;0.40;;;;;;;25.87;26.04;98449.50;5075521;28;20028;-87
2021/05/29 11:34:42;;;;;;;1.08;0.63;;;;;;;26.47;26.12;98446.03;5075120;28;20041;-86
2021/05/29 11:37:15;;;;;;;1.60;0.50;;;;;;;27.27;24.78;98439.44;5075054;28;20033;-86
2021/05/29 11:39:55;;;;;;;0.60;0.60;;;;;;;28.25;23.60;98434.00;5089043;28;20036;-86
2021/05/29 11:42:21;;;;;;;0.73;0.50;;;;;;;28.86;23.30;98419.41;5095264;28;20024;-86
2021/05/29 11:44:47;;;;;;;0.65;0.55;;;;;;;29.37;22.96;98421.53;5095148;28;20036;-86
2021/05/29 11:47:17;;;;;;;0.50;0.50;;;;;;;29.82;22.18;98417.41;5095300;28;20111;-86
2021/05/29 11:49:44;;;;;;;0.50;0.40;;;;;;;30.31;21.80;98423.88;5095415;28;20036;-86
2021/05/29 11:52:11;;;;;;;0.40;0.40;;;;;;;30.42;21.76;98415.72;5095107;28;20040;-86